Time;durP1;ratioP1;P1;durP2;ratioP2;P2;SDS_P1;SDS_P2;PMS_P1;PMS_P2;Temp;Humidity;BMP_temperature;BMP_pressure;BME280_temperature;BME280_humidity;BME280_pressure;Samples;Min_cycle;Max_cycle;Signal;HPM_P1;HPM_P2
2022/09/29 00:01:59;;;;;;;;;3.50;3.50;;;;;27.11;100.00;101579.44;5016843;28;51084;-47
2022/09/29 00:04:43;;;;;;;;;6.00;5.25;;;;;27.06;100.00;101568.78;5017284;28;51472;-50
2022/09/29 00:07:28;;;;;;;;;5.50;4.25;;;;;27.06;100.00;101564.22;5018516;28;51221;-48
2022/09/29 00:10:12;;;;;;;;;6.50;3.00;;;;;27.03;100.00;101558.94;5012262;28;51742;-47
2022/09/29 00:12:57;;;;;;;;;4.75;3.75;;;;;27.03;100.00;101550.75;5019090;28;51491;-47
2022/09/29 00:15:41;;;;;;;;;3.75;3.75;;;;;27.03;100.00;101553.47;5020136;28;51857;-48
2022/09/29 00:18:26;;;;;;;;;6.25;2.25;;;;;27.07;100.00;101556.91;5021743;28;51069;-46
2022/09/29 00:21:14;;;;;;;;;2.75;1.25;;;;;27.05;100.00;101546.06;5022046;28;51145;-47
2022/09/29 00:24:00;;;;;;;;;5.25;2.25;;;;;27.10;100.00;101553.09;5020354;28;51459;-47
2022/09/29 00:26:45;;;;;;;;;5.50;3.00;;;;;27.10;100.00;101543.06;5021839;28;51088;-47
2022/09/29 00:29:30;;;;;;;;;2.50;2.00;;;;;27.11;100.00;101549.41;5011902;28;52187;-49
2022/09/29 00:32:14;;;;;;;;;2.25;2.25;;;;;27.08;100.00;101530.47;5005219;28;51170;-47
2022/09/29 00:34:59;;;;;;;;;3.25;3.00;;;;;27.08;100.00;101527.75;5020226;28;51077;-50
2022/09/29 00:37:44;;;;;;;;;3.25;2.00;;;;;27.02;100.00;101526.28;5021596;28;51350;-49
2022/09/29 00:40:28;;;;;;;;;5.75;4.00;;;;;27.03;100.00;101520.72;5020420;28;51461;-47
2022/09/29 00:43:20;;;;;;;;;3.75;2.75;;;;;26.98;100.00;101517.41;5020617;28;51116;-49
2022/09/29 00:46:06;;;;;;;;;5.25;3.50;;;;;26.98;100.00;101516.50;5019665;28;51204;-52
2022/09/29 00:48:50;;;;;;;;;3.75;1.75;;;;;26.93;100.00;101515.91;5006470;28;51247;-47
2022/09/29 00:51:36;;;;;;;;;4.75;4.00;;;;;26.97;100.00;101517.47;5005551;28;51143;-48
2022/09/29 00:54:21;;;;;;;;;5.50;2.75;;;;;26.95;100.00;101512.09;5021937;28;51250;-50
2022/09/29 00:57:07;;;;;;;;;6.25;4.00;;;;;26.94;100.00;101510.34;5019924;28;51329;-46
2022/09/29 01:00:08;;;;;;;;;10.00;5.00;;;;;26.94;100.00;101512.19;5014213;28;51146;-49
2022/09/29 01:03:21;;;;;;;;;6.00;4.00;;;;;26.93;100.00;101508.59;5021129;28;51099;-47
2022/09/29 01:06:11;;;;;;;;;8.00;4.00;;;;;26.91;100.00;101508.69;5017937;28;51267;-48
2022/09/29 01:09:02;;;;;;;;;6.50;3.00;;;;;26.92;100.00;101504.09;5017289;28;51059;-48
2022/09/29 01:11:47;;;;;;;;;5.50;4.50;;;;;26.90;100.00;101497.84;5020606;28;51217;-51
2022/09/29 01:14:33;;;;;;;;;7.00;6.00;;;;;26.89;100.00;101502.44;5001024;28;51098;-50
2022/09/29 01:17:17;;;;;;;;;8.25;5.25;;;;;26.84;100.00;101499.09;5005324;28;51216;-47
2022/09/29 01:20:08;;;;;;;;;7.75;6.00;;;;;26.85;100.00;101494.53;5016440;28;51106;-46
2022/09/29 01:23:21;;;;;;;;;11.25;6.75;;;;;26.83;100.00;101491.00;5020961;28;51056;-46
2022/09/29 01:26:43;;;;;;;;;6.00;6.00;;;;;26.80;100.00;101486.63;5020749;28;51151;-49
2022/09/29 01:29:42;;;;;;;;;6.50;6.00;;;;;26.78;100.00;101477.63;5020018;28;51099;-49
2022/09/29 01:32:51;;;;;;;;;6.25;5.25;;;;;26.78;100.00;101488.56;5018871;28;51563;-47
2022/09/29 01:35:52;;;;;;;;;5.00;5.00;;;;;26.76;100.00;101479.53;5004062;28;51385;-48
2022/09/29 01:38:46;;;;;;;;;7.00;5.25;;;;;26.75;100.00;101469.59;5020427;28;51106;-48
2022/09/29 01:41:50;;;;;;;;;5.75;3.25;;;;;26.73;100.00;101474.25;5017318;28;51100;-50
2022/09/29 01:44:47;;;;;;;;;3.50;3.50;;;;;26.70;100.00;101467.13;5006544;28;51183;-47
2022/09/29 01:47:43;;;;;;;;;3.75;3.00;;;;;26.66;100.00;101464.69;5017813;28;51083;-46
2022/09/29 01:50:33;;;;;;;;;6.75;5.00;;;;;26.57;100.00;101452.47;5004979;28;51153;-48
2022/09/29 01:53:22;;;;;;;;;6.00;4.25;;;;;26.62;100.00;101461.28;5009516;28;51222;-48
2022/09/29 01:56:11;;;;;;;;;2.50;2.50;;;;;26.60;100.00;101464.09;5012319;28;51585;-51
2022/09/29 01:59:01;;;;;;;;;2.50;2.00;;;;;26.59;100.00;101462.34;5011607;28;51079;-47
2022/09/29 02:01:46;;;;;;;;;4.00;2.25;;;;;26.57;100.00;101464.28;5019702;28;51177;-46
2022/09/29 02:04:35;;;;;;;;;5.50;4.00;;;;;26.53;100.00;101451.78;5010486;28;51093;-46
2022/09/29 02:07:26;;;;;;;;;4.75;3.75;;;;;26.56;100.00;101458.91;5012957;28;51488;-46
2022/09/29 02:10:25;;;;;;;;;4.00;4.00;;;;;26.56;100.00;101464.38;5013206;28;51260;-48
2022/09/29 02:13:10;;;;;;;;;3.00;3.00;;;;;26.56;100.00;101464.38;5016868;28;51364;-45
2022/09/29 02:15:56;;;;;;;;;3.50;2.50;;;;;26.55;100.00;101458.03;5007794;28;51175;-47
2022/09/29 02:18:51;;;;;;;;;5.25;4.00;;;;;26.58;100.00;101459.69;5004319;28;51241;-46
2022/09/29 02:21:36;;;;;;;;;3.00;3.00;;;;;26.60;100.00;101460.47;5011094;28;51564;-46
2022/09/29 02:24:21;;;;;;;;;4.00;4.00;;;;;26.57;100.00;101449.72;5006963;28;51107;-49
2022/09/29 02:27:06;;;;;;;;;3.00;2.00;;;;;26.54;100.00;101444.47;5018947;28;51104;-48
2022/09/29 02:29:50;;;;;;;;;5.00;2.00;;;;;26.55;100.00;101447.09;5018830;28;51229;-50
2022/09/29 02:32:35;;;;;;;;;4.25;3.00;;;;;26.51;100.00;101445.53;5017365;28;51186;-48
2022/09/29 02:35:20;;;;;;;;;3.50;2.00;;;;;26.51;100.00;101444.66;5018170;28;51023;-46
2022/09/29 02:38:15;;;;;;;;;2.00;2.00;;;;;26.48;100.00;101440.28;5019387;28;51064;-46
2022/09/29 02:41:06;;;;;;;;;5.00;3.00;;;;;26.49;100.00;101450.22;4989515;28;51135;-48
2022/09/29 02:43:56;;;;;;;;;2.00;2.00;;;;;26.50;100.00;101445.63;5004123;28;51103;-48
2022/09/29 02:47:01;;;;;;;;;2.00;2.00;;;;;26.50;100.00;101446.53;5018909;28;51545;-50
2022/09/29 02:50:16;;;;;;;;;1.00;1.00;;;;;26.52;100.00;101449.16;5018808;28;51208;-47
2022/09/29 02:53:22;;;;;;;;;1.50;1.50;;;;;26.50;100.00;101442.91;5018077;28;51337;-47
2022/09/29 02:56:16;;;;;;;;;4.00;2.00;;;;;26.49;100.00;101441.13;5018922;28;51051;-50
2022/09/29 02:59:06;;;;;;;;;1.75;1.00;;;;;26.49;100.00;101443.88;5018426;28;51145;-47
2022/09/29 03:01:53;;;;;;;;;4.00;3.00;;;;;26.42;100.00;101433.31;5004285;28;51442;-47
2022/09/29 03:04:37;;;;;;;;;2.25;2.00;;;;;26.41;100.00;101431.56;5009922;28;51444;-49
2022/09/29 03:07:22;;;;;;;;;2.75;1.00;;;;;26.43;100.00;101434.19;5016465;28;51317;-50
2022/09/29 03:10:08;;;;;;;;;3.25;3.25;;;;;26.42;100.00;101435.16;5007896;28;51198;-51
2022/09/29 03:12:52;;;;;;;;;2.75;2.75;;;;;26.41;100.00;101436.13;5018426;28;51160;-47
2022/09/29 03:15:37;;;;;;;;;1.50;1.50;;;;;26.41;100.00;101445.22;5017754;28;51368;-47
2022/09/29 03:18:23;;;;;;;;;3.00;2.00;;;;;26.37;100.00;101435.44;5016224;28;51199;-49
2022/09/29 03:21:07;;;;;;;;;2.25;2.00;;;;;26.40;100.00;101435.25;5018806;28;51158;-46
2022/09/29 03:23:52;;;;;;;;;6.00;4.00;;;;;26.39;100.00;101441.69;5017315;28;51146;-50
2022/09/29 03:26:36;;;;;;;;;2.00;2.00;;;;;26.37;100.00;101429.13;5011944;28;51221;-48
2022/09/29 03:29:21;;;;;;;;;4.00;3.00;;;;;26.37;100.00;101420.94;5019060;28;51079;-51
2022/09/29 03:32:05;;;;;;;;;4.00;4.00;;;;;26.40;100.00;101432.53;5019072;28;51118;-47
2022/09/29 03:34:50;;;;;;;;;5.50;3.00;;;;;26.37;100.00;101429.13;5013530;28;51191;-46
2022/09/29 03:37:35;;;;;;;;;3.00;2.50;;;;;26.39;100.00;101440.81;5018948;28;51342;-49
2022/09/29 03:40:19;;;;;;;;;2.75;2.75;;;;;26.35;100.00;101431.03;5019092;28;51426;-48
2022/09/29 03:43:03;;;;;;;;;3.75;3.75;;;;;26.38;100.00;101439.06;5019195;28;51479;-46
2022/09/29 03:45:49;;;;;;;;;5.25;4.50;;;;;26.38;100.00;101433.59;5013071;28;51170;-51
2022/09/29 03:48:34;;;;;;;;;5.00;3.25;;;;;26.36;100.00;101424.63;5022811;28;51335;-49
2022/09/29 03:51:18;;;;;;;;;4.25;4.25;;;;;26.37;100.00;101426.38;5022952;28;51168;-49
2022/09/29 03:54:02;;;;;;;;;8.75;5.75;;;;;26.37;100.00;101427.25;5020678;28;51103;-47
2022/09/29 03:56:47;;;;;;;;;9.00;6.25;;;;;26.36;100.00;101417.31;5022190;28;51228;-48
2022/09/29 03:59:31;;;;;;;;;7.75;4.50;;;;;26.35;100.00;101423.72;5020549;28;51046;-48
2022/09/29 04:02:17;;;;;;;;;8.00;6.25;;;;;26.37;100.00;101427.25;5001041;28;51127;-49
2022/09/29 04:05:01;;;;;;;;;6.50;6.50;;;;;26.36;100.00;101427.34;5020855;28;51202;-48
2022/09/29 04:07:45;;;;;;;;;8.00;7.00;;;;;26.37;100.00;101429.97;5017018;28;51002;-46
2022/09/29 04:10:32;;;;;;;;;6.50;4.50;;;;;26.39;100.00;101429.91;5018973;28;51256;-48
2022/09/29 04:13:17;;;;;;;;;8.75;7.50;;;;;26.38;100.00;101431.75;5006354;28;51601;-47
2022/09/29 04:16:04;;;;;;;;;5.75;5.75;;;;;26.38;100.00;101436.34;5014735;28;51072;-47
2022/09/29 04:18:49;;;;;;;;;7.00;5.25;;;;;26.35;100.00;101431.91;5018536;28;51545;-46
2022/09/29 04:21:33;;;;;;;;;6.00;5.25;;;;;26.35;100.00;101431.91;5021878;28;51166;-48
2022/09/29 04:24:18;;;;;;;;;10.50;7.50;;;;;26.36;100.00;101427.34;5016132;28;51110;-47
2022/09/29 04:27:02;;;;;;;;;8.25;6.50;;;;;26.31;100.00;101430.34;5019038;28;52427;-49
2022/09/29 04:29:47;;;;;;;;;10.00;8.00;;;;;26.35;100.00;101433.78;5021421;28;51369;-48
2022/09/29 04:32:31;;;;;;;;;11.25;8.00;;;;;26.32;100.00;101431.22;5021559;28;51125;-47
2022/09/29 04:35:16;;;;;;;;;7.00;6.00;;;;;26.33;100.00;101430.25;5022077;28;51238;-48
2022/09/29 04:38:01;;;;;;;;;7.75;7.75;;;;;26.21;100.00;101410.91;5021103;28;51397;-50
2022/09/29 04:40:46;;;;;;;;;8.50;8.50;;;;;26.36;100.00;101441.84;5017744;28;51349;-49
2022/09/29 04:43:31;;;;;;;;;10.25;8.50;;;;;26.34;100.00;101441.09;5021476;28;51088;-46
2022/09/29 04:46:15;;;;;;;;;7.00;6.75;;;;;26.31;100.00;101441.28;5019188;28;51704;-47
2022/09/29 04:48:59;;;;;;;;;7.75;7.75;;;;;26.30;100.00;101437.66;5001720;28;51381;-48
2022/09/29 04:51:44;;;;;;;;;12.00;8.75;;;;;26.36;100.00;101458.22;5020683;28;51167;-48
2022/09/29 04:54:33;;;;;;;;;12.75;7.75;;;;;26.35;100.00;101448.28;5015950;28;51162;-48
2022/09/29 04:57:17;;;;;;;;;9.50;9.25;;;;;26.33;100.00;101441.16;5019978;28;51242;-46
2022/09/29 05:00:03;;;;;;;;;13.00;10.00;;;;;26.33;100.00;101452.97;5021266;28;51147;-47
2022/09/29 05:02:47;;;;;;;;;18.75;16.75;;;;;26.38;100.00;101450.84;5018091;28;51222;-48
2022/09/29 05:05:32;;;;;;;;;18.50;18.50;;;;;26.41;100.00;101453.41;5020835;28;51169;-48
2022/09/29 05:08:16;;;;;;;;;70.00;55.50;;;;;26.42;100.00;101454.25;5006389;28;51218;-47
2022/09/29 05:11:08;;;;;;;;;33.25;31.00;;;;;26.41;100.00;101444.31;5019869;28;51269;-47
2022/09/29 05:13:53;;;;;;;;;24.50;23.25;;;;;26.40;100.00;101453.50;5020697;28;51120;-49
2022/09/29 05:16:37;;;;;;;;;24.25;21.50;;;;;26.40;100.00;101448.03;5010845;28;51142;-46
2022/09/29 05:19:22;;;;;;;;;20.00;16.25;;;;;26.43;100.00;101462.38;5018981;28;51489;-46
2022/09/29 05:22:06;;;;;;;;;16.00;15.75;;;;;26.42;100.00;101460.63;5005689;28;51213;-46
2022/09/29 05:24:51;;;;;;;;;17.00;15.50;;;;;26.42;100.00;101474.25;5020686;28;51190;-47
2022/09/29 05:27:37;;;;;;;;;17.00;15.50;;;;;26.38;100.00;101467.22;5018461;28;51088;-51
2022/09/29 05:30:21;;;;;;;;;21.50;17.75;;;;;26.42;100.00;101487.00;5016942;28;51734;-49
2022/09/29 05:33:06;;;;;;;;;16.25;11.75;;;;;26.44;100.00;101476.88;5019231;28;51423;-48
2022/09/29 05:35:51;;;;;;;;;21.75;17.00;;;;;26.39;100.00;101477.16;5019739;28;51222;-48
2022/09/29 05:38:36;;;;;;;;;16.50;16.50;;;;;26.45;100.00;101493.19;5020290;28;51302;-46
2022/09/29 05:41:23;;;;;;;;;16.00;16.00;;;;;26.45;100.00;101495.91;5020326;28;51546;-48
2022/09/29 05:44:08;;;;;;;;;21.50;15.25;;;;;26.47;100.00;101503.09;5017291;28;51069;-46
2022/09/29 05:46:53;;;;;;;;;17.00;14.50;;;;;26.47;100.00;101505.81;5019534;28;51135;-47
2022/09/29 05:49:38;;;;;;;;;18.25;15.75;;;;;26.45;100.00;101505.94;5019912;28;51154;-46
2022/09/29 05:52:22;;;;;;;;;15.00;13.75;;;;;26.48;100.00;101513.94;5017858;28;51363;-46
2022/09/29 05:55:08;;;;;;;;;15.00;15.00;;;;;26.49;100.00;101518.44;5019463;28;51778;-48
2022/09/29 05:57:53;;;;;;;;;20.75;17.00;;;;;26.46;100.00;101502.22;5019817;28;51442;-47
2022/09/29 06:00:37;;;;;;;;;23.50;22.25;;;;;26.51;100.00;101518.34;5018617;28;51106;-47
2022/09/29 06:03:21;;;;;;;;;26.25;23.00;;;;;26.52;100.00;101523.69;5019458;28;51004;-46
2022/09/29 06:06:09;;;;;;;;;25.50;23.75;;;;;26.54;100.00;101520.91;5014369;28;51655;-48
2022/09/29 06:08:54;;;;;;;;;24.25;22.25;;;;;26.55;100.00;101525.38;5018530;28;51481;-48
2022/09/29 06:11:38;;;;;;;;;27.25;25.25;;;;;26.53;100.00;101525.47;5016493;28;51096;-46
2022/09/29 06:14:23;;;;;;;;;24.50;22.50;;;;;26.50;100.00;101522.03;5020325;28;51114;-46
2022/09/29 06:17:07;;;;;;;;;27.00;24.25;;;;;26.57;100.00;101535.22;5012529;28;51150;-47
2022/09/29 06:19:52;;;;;;;;;28.75;27.50;;;;;26.55;100.00;101531.72;5017040;28;51437;-45
2022/09/29 06:22:36;;;;;;;;;28.75;26.50;;;;;26.59;100.00;101537.88;5018749;28;51234;-44
2022/09/29 06:25:21;;;;;;;;;30.00;27.25;;;;;26.60;100.00;101542.34;5019361;28;51196;-42
2022/09/29 06:28:05;;;;;;;;;27.25;23.00;;;;;26.64;100.00;101545.78;5020026;28;51559;-45
2022/09/29 06:30:50;;;;;;;;;20.50;18.00;;;;;26.65;100.00;101548.44;5019721;28;51190;-42
2022/09/29 06:33:35;;;;;;;;;24.75;20.50;;;;;26.68;100.00;101552.81;5019583;28;51501;-48
2022/09/29 06:39:26;;;;;;;;;15.00;12.75;;;;;26.76;100.00;101555.97;5019659;28;51222;-42
2022/09/29 06:42:11;;;;;;;;;12.00;11.00;;;;;26.81;100.00;101553.00;5019808;28;51464;-46
2022/09/29 06:44:56;;;;;;;;;16.00;15.50;;;;;26.83;100.00;101551.06;5013651;28;51131;-42
2022/09/29 06:47:40;;;;;;;;;16.25;15.50;;;;;26.82;100.00;101541.13;5004397;28;51087;-43
2022/09/29 06:50:25;;;;;;;;;16.25;14.50;;;;;27.01;100.00;101558.16;5019663;28;51165;-45
2022/09/29 06:53:09;;;;;;;;;14.25;13.50;;;;;27.09;100.00;101554.97;5011162;28;51162;-44
2022/09/29 06:55:59;;;;;;;;;20.50;16.25;;;;;27.23;100.00;101562.31;5011660;28;51217;-42
2022/09/29 06:58:45;;;;;;;;;21.50;20.25;;;;;27.40;100.00;101563.16;5018936;28;51574;-45
2022/09/29 07:01:29;;;;;;;;;19.75;17.50;;;;;27.56;100.00;101563.97;5018506;28;51129;-44
2022/09/29 07:04:14;;;;;;;;;24.00;20.50;;;;;27.72;100.00;101560.28;5019481;28;51114;-47
2022/09/29 07:06:58;;;;;;;;;13.25;13.25;;;;;27.83;100.00;101560.47;5019032;28;51597;-46
2022/09/29 07:09:43;;;;;;;;;17.25;16.25;;;;;27.92;100.00;101557.16;5019179;28;51134;-43
2022/09/29 07:12:27;;;;;;;;;14.50;12.25;;;;;28.10;100.00;101565.16;5018819;28;51482;-41
2022/09/29 07:15:12;;;;;;;;;11.25;11.25;;;;;28.26;100.00;101570.50;5013065;28;51106;-44
2022/09/29 07:17:59;;;;;;;;;13.00;12.00;;;;;28.36;100.00;101573.53;5018742;28;51114;-43
2022/09/29 07:20:43;;;;;;;;;13.75;13.75;;;;;28.45;100.00;101570.19;5015705;28;51235;-45
2022/09/29 07:23:28;;;;;;;;;12.00;10.00;;;;;28.52;100.00;101573.41;5014222;28;51343;-45
2022/09/29 07:26:15;;;;;;;;;16.25;12.50;;;;;28.54;100.00;101572.31;5016219;28;51223;-44
2022/09/29 07:29:00;;;;;;;;;14.50;12.25;;;;;28.66;100.00;101580.69;5003187;28;51142;-44
2022/09/29 07:31:44;;;;;;;;;12.75;9.00;;;;;28.75;100.00;101582.81;5012448;28;51137;-41
2022/09/29 07:34:29;;;;;;;;;12.00;12.00;;;;;28.94;100.00;101587.06;5018878;28;51010;-41
2022/09/29 07:37:14;;;;;;;;;9.50;9.50;;;;;29.16;100.00;101594.66;4999755;28;51505;-42
2022/09/29 07:39:59;;;;;;;;;12.50;9.25;;;;;29.31;100.00;101587.25;5016111;28;51112;-42
2022/09/29 07:42:43;;;;;;;;;11.50;11.00;;;;;29.35;100.00;101586.97;5018810;28;51420;-42
2022/09/29 07:45:28;;;;;;;;;15.00;12.25;;;;;29.44;100.00;101595.53;5016384;28;51020;-40
2022/09/29 07:48:12;;;;;;;;;10.00;9.75;;;;;29.57;100.00;101601.00;4987529;28;51448;-39
2022/09/29 07:51:01;;;;;;;;;11.75;10.00;;;;;29.73;100.00;101595.31;5001823;28;51238;-40
2022/09/29 07:53:47;;;;;;;;;10.00;8.75;;;;;29.95;100.00;101597.41;4993990;28;51275;-40
2022/09/29 07:56:31;;;;;;;;;9.75;6.75;;;;;30.20;100.00;101591.03;5015159;28;51484;-41
2022/09/29 07:59:16;;;;;;;;;9.25;8.75;;;;;30.79;100.00;101597.66;5018515;28;51745;-44
2022/09/29 08:02:01;;;;;;;;;3.00;1.00;;;;;31.58;100.00;101583.31;5014609;28;51963;-42
2022/09/29 08:04:46;;;;;;;;;6.75;6.75;;;;;32.36;100.00;101586.25;5018751;28;51130;-47
2022/09/29 08:07:30;;;;;;;;;11.00;11.00;;;;;33.06;100.00;101572.16;5017562;28;51064;-42
2022/09/29 08:10:15;;;;;;;;;6.25;6.25;;;;;33.57;100.00;101569.63;5013045;28;51123;-44
2022/09/29 08:13:00;;;;;;;;;9.00;7.25;;;;;34.07;100.00;101566.09;5017122;28;51341;-45
2022/09/29 08:15:44;;;;;;;;;8.50;8.00;;;;;34.37;100.00;101556.91;5016301;28;51057;-42
2022/09/29 08:18:30;;;;;;;;;6.75;5.00;;;;;34.59;100.00;101558.53;5010294;28;51206;-45
2022/09/29 08:21:15;;;;;;;;;7.25;5.00;;;;;34.76;100.00;101554.19;5015055;28;51914;-43
2022/09/29 08:24:01;;;;;;;;;4.75;4.00;;;;;34.91;100.00;101553.81;5009023;28;51295;-42
2022/09/29 08:26:45;;;;;;;;;6.00;6.00;;;;;35.03;100.00;101548.97;5016068;28;52100;-42
2022/09/29 08:29:30;;;;;;;;;6.50;5.00;;;;;35.13;100.00;101549.84;5013693;28;51181;-42
2022/09/29 08:32:14;;;;;;;;;6.00;5.00;;;;;35.27;100.00;101551.28;5013511;28;51221;-41
2022/09/29 08:34:59;;;;;;;;;3.50;3.50;;;;;35.42;100.00;101546.16;4991953;28;51212;-40
2022/09/29 08:37:43;;;;;;;;;6.00;6.00;;;;;35.54;100.00;101552.41;5006362;28;51359;-42
2022/09/29 08:40:29;;;;;;;;;8.25;4.50;;;;;35.58;100.00;101540.00;5020863;28;51334;-43
2022/09/29 08:43:20;;;;;;;;;4.00;4.00;;;;;35.51;100.00;101552.72;5003930;28;51170;-43
2022/09/29 08:46:08;;;;;;;;;10.50;6.75;;;;;35.19;100.00;101551.16;5003281;28;51365;-44
2022/09/29 08:48:54;;;;;;;;;5.25;4.75;;;;;35.03;100.00;101562.81;5001986;28;51244;-41
2022/09/29 08:51:45;;;;;;;;;10.25;5.75;;;;;35.05;100.00;101572.69;5001221;28;52086;-44
2022/09/29 08:54:33;;;;;;;;;4.00;4.00;;;;;34.99;100.00;101569.63;5006313;28;51083;-41
2022/09/29 08:57:19;;;;;;;;;5.00;4.75;;;;;34.83;100.00;101576.59;5020104;28;51538;-44
2022/09/29 09:00:07;;;;;;;;;6.75;5.25;;;;;34.63;100.00;101575.72;5005811;28;51228;-44
2022/09/29 09:03:08;;;;;;;;;6.00;6.00;;;;;34.71;100.00;101589.69;5021057;28;50977;-42
2022/09/29 09:06:11;;;;;;;;;7.25;5.75;;;;;34.85;100.00;101576.44;5019890;28;51325;-40
2022/09/29 09:09:24;;;;;;;;;11.25;7.00;;;;;34.76;100.00;101589.28;5017779;28;51152;-46
2022/09/29 09:12:33;;;;;;;;;10.25;7.75;;;;;34.80;100.00;101578.78;5019556;28;51443;-44
2022/09/29 09:15:30;;;;;;;;;6.00;6.00;;;;;34.74;100.00;101581.09;5019258;28;51103;-47
2022/09/29 09:18:47;;;;;;;;;9.25;8.00;;;;;34.84;100.00;101581.13;4996850;28;51160;-43
2022/09/29 09:21:42;;;;;;;;;10.75;9.50;;;;;35.02;100.00;101577.66;5015429;28;51154;-41
2022/09/29 09:24:36;;;;;;;;;11.00;9.25;;;;;35.00;100.00;101579.69;5004906;28;51518;-47
2022/09/29 09:27:25;;;;;;;;;5.00;5.00;;;;;34.90;100.00;101576.91;5017305;28;51544;-45
2022/09/29 09:30:15;;;;;;;;;7.75;5.25;;;;;34.76;100.00;101586.50;5013565;28;51734;-44
2022/09/29 09:33:03;;;;;;;;;3.50;3.50;;;;;34.52;100.00;101579.50;5003920;28;51147;-41
2022/09/29 09:36:33;;;;;;;;;4.50;3.50;;;;;34.79;100.00;101588.97;5002969;28;51246;-43
2022/09/29 09:39:20;;;;;;;;;8.50;8.00;;;;;35.15;100.00;101589.28;5004583;28;51171;-40
2022/09/29 09:42:20;;;;;;;;;6.00;4.25;;;;;35.59;100.00;101576.88;5013992;28;51549;-42
2022/09/29 09:45:17;;;;;;;;;1.50;1.50;;;;;35.72;100.00;101574.63;5002697;28;51145;-42
2022/09/29 09:48:31;;;;;;;;;3.50;2.75;;;;;35.50;100.00;101573.09;5003048;28;51188;-43
2022/09/29 09:51:29;;;;;;;;;7.75;4.00;;;;;35.32;100.00;101568.31;5002056;28;51768;-40
2022/09/29 09:54:28;;;;;;;;;7.00;5.25;;;;;35.31;100.00;101572.09;5019905;28;51269;-44
2022/09/29 09:57:20;;;;;;;;;6.25;4.00;;;;;35.48;100.00;101569.59;5019509;28;51462;-42
2022/09/29 10:00:13;;;;;;;;;5.25;2.00;;;;;35.37;100.00;101565.09;5002816;28;51262;-44
2022/09/29 10:03:04;;;;;;;;;3.00;3.00;;;;;35.06;100.00;101568.06;5017588;28;51224;-41
2022/09/29 10:05:48;;;;;;;;;2.00;1.00;;;;;34.74;100.00;101564.53;5016141;28;52025;-43
2022/09/29 10:08:38;;;;;;;;;1.00;0.50;;;;;34.50;100.00;101578.75;5002442;28;51608;-44
2022/09/29 10:11:25;;;;;;;;;2.00;1.00;;;;;34.24;100.00;101581.13;5002216;28;51566;-43
2022/09/29 10:14:16;;;;;;;;;2.25;2.25;;;;;34.00;100.00;101590.63;5004138;28;51195;-42
2022/09/29 10:17:09;;;;;;;;;0.00;0.00;;;;;33.79;100.00;101580.47;5002246;28;51714;-46
2022/09/29 10:20:04;;;;;;;;;0.00;0.00;;;;;33.60;100.00;101583.16;5002715;28;51212;-42
2022/09/29 10:22:49;;;;;;;;;2.00;2.00;;;;;33.55;100.00;101580.78;5018179;28;51401;-45
2022/09/29 10:25:33;;;;;;;;;1.00;1.00;;;;;33.80;100.00;101586.91;5013717;28;51197;-42
2022/09/29 10:28:18;;;;;;;;;0.50;0.50;;;;;33.93;100.00;101572.88;5015990;28;51175;-46
2022/09/29 10:31:02;;;;;;;;;2.00;0.00;;;;;33.83;100.00;101568.16;5012442;28;51056;-46
2022/09/29 10:34:18;;;;;;;;;1.25;1.00;;;;;33.75;100.00;101570.75;5004105;28;51250;-43
2022/09/29 10:37:16;;;;;;;;;3.50;2.50;;;;;33.82;100.00;101565.53;5003497;28;51360;-42
2022/09/29 10:40:09;;;;;;;;;3.00;1.00;;;;;33.80;100.00;101559.28;5003728;28;51193;-45
2022/09/29 10:42:55;;;;;;;;;1.25;1.25;;;;;33.71;100.00;101555.47;5017528;28;51220;-40
2022/09/29 10:45:47;;;;;;;;;3.00;2.00;;;;;33.75;100.00;101550.53;5017494;28;51181;-44
2022/09/29 10:48:32;;;;;;;;;2.75;2.00;;;;;33.71;100.00;101549.94;5018545;28;51405;-42
2022/09/29 10:51:21;;;;;;;;;1.25;1.25;;;;;33.67;100.00;101552.13;5015604;28;51385;-43
2022/09/29 10:54:08;;;;;;;;;1.50;1.25;;;;;33.72;100.00;101542.53;5002375;28;51167;-44
2022/09/29 10:56:53;;;;;;;;;3.00;3.00;;;;;33.84;100.00;101545.06;4998199;28;51418;-47
2022/09/29 10:59:48;;;;;;;;;3.25;2.00;;;;;34.03;100.00;101537.91;5015343;28;51151;-45
2022/09/29 11:02:35;;;;;;;;;4.75;3.25;;;;;34.19;100.00;101545.66;5017235;28;51261;-44
2022/09/29 11:05:24;;;;;;;;;1.00;1.00;;;;;34.47;100.00;101520.16;4996290;28;51188;-42
2022/09/29 11:08:12;;;;;;;;;1.50;1.00;;;;;34.71;100.00;101514.19;5015159;28;51178;-50
2022/09/29 11:11:06;;;;;;;;;2.50;2.00;;;;;34.64;100.00;101505.59;5001457;28;51216;-44
2022/09/29 11:13:51;;;;;;;;;1.00;1.00;;;;;34.46;100.00;101505.44;5005421;28;51199;-48
2022/09/29 11:16:37;;;;;;;;;2.00;0.25;;;;;34.26;100.00;101504.53;5016812;28;51265;-39
2022/09/29 11:19:22;;;;;;;;;5.25;3.50;;;;;34.18;100.00;101504.38;5010617;28;51190;-42
2022/09/29 11:22:28;;;;;;;;;4.25;2.50;;;;;34.23;100.00;101502.06;5014696;28;51243;-45
2022/09/29 11:25:36;;;;;;;;;1.00;1.00;;;;;34.27;100.00;101504.38;5017998;28;51160;-45
2022/09/29 11:28:38;;;;;;;;;3.50;0.25;;;;;34.20;100.00;101491.28;4999041;28;51189;-42
2022/09/29 11:31:39;;;;;;;;;0.50;0.50;;;;;34.09;100.00;101489.53;5016049;28;51164;-44
2022/09/29 11:34:30;;;;;;;;;0.50;0.00;;;;;33.94;100.00;101494.59;5016930;28;51070;-45
2022/09/29 11:37:33;;;;;;;;;1.00;1.00;;;;;33.78;100.00;101476.63;5001506;28;51107;-45
2022/09/29 11:40:33;;;;;;;;;0.75;0.50;;;;;33.63;100.00;101489.06;5010721;28;51781;-50
2022/09/29 11:43:46;;;;;;;;;2.75;2.50;;;;;33.63;100.00;101489.06;5015127;28;51149;-43
2022/09/29 11:46:43;;;;;;;;;1.50;1.00;;;;;33.51;100.00;101483.66;4997248;28;51192;-42
2022/09/29 11:49:34;;;;;;;;;1.25;1.25;;;;;33.37;100.00;101478.47;5015362;28;51547;-44
2022/09/29 11:52:33;;;;;;;;;4.00;1.00;;;;;33.30;100.00;101475.38;5016256;28;51215;-41
2022/09/29 11:55:33;;;;;;;;;1.00;0.00;;;;;33.28;100.00;101466.34;5000810;28;51100;-42
2022/09/29 11:59:15;;;;;;;;;3.00;2.00;;;;;33.41;100.00;101477.22;5014217;28;51176;-44
2022/09/29 12:02:18;;;;;;;;;1.25;1.25;;;;;33.37;100.00;101467.44;4930455;28;51323;-43
2022/09/29 12:05:26;;;;;;;;;3.75;2.50;;;;;33.33;100.00;101461.34;4931340;28;51120;-42
2022/09/29 12:08:26;;;;;;;;;3.25;2.00;;;;;33.23;100.00;101469.50;5005072;28;51316;-45
2022/09/29 12:11:32;;;;;;;;;1.75;1.25;;;;;33.19;100.00;101469.94;4999762;28;51202;-43
2022/09/29 12:15:01;;;;;;;;;2.00;1.00;;;;;32.97;100.00;101466.31;5003925;28;51127;-44
2022/09/29 12:17:54;;;;;;;;;1.00;1.00;;;;;32.78;100.00;101449.63;5019449;28;52057;-44
2022/09/29 12:20:43;;;;;;;;;1.25;0.50;;;;;32.82;100.00;101448.38;5020172;28;51242;-43
2022/09/29 12:23:28;;;;;;;;;4.50;0.50;;;;;32.77;100.00;101451.50;5008632;28;51617;-40
2022/09/29 12:26:19;;;;;;;;;0.75;0.75;;;;;32.95;100.00;101448.16;5005642;28;51221;-40
2022/09/29 12:29:20;;;;;;;;;1.00;1.00;;;;;33.07;100.00;101438.81;5000918;28;51256;-44
2022/09/29 12:32:13;;;;;;;;;4.50;0.75;;;;;33.02;100.00;101427.31;5003983;28;51143;-41
2022/09/29 12:35:16;;;;;;;;;3.25;0.75;;;;;32.69;100.00;101426.50;5004881;28;51601;-45
2022/09/29 12:38:19;;;;;;;;;3.75;1.75;;;;;32.27;100.00;101432.81;5018145;28;51063;-43
2022/09/29 12:41:20;;;;;;;;;0.75;0.00;;;;;31.81;100.00;101434.81;5017699;28;51161;-45
2022/09/29 12:44:14;;;;;;;;;1.75;0.50;;;;;31.58;100.00;101443.06;5005185;28;51447;-40
2022/09/29 12:47:36;;;;;;;;;1.75;1.75;;;;;31.42;100.00;101431.56;5016041;28;51352;-42
2022/09/29 12:50:23;;;;;;;;;3.00;1.00;;;;;31.28;100.00;101435.41;5017086;28;51182;-44
2022/09/29 12:53:11;;;;;;;;;4.75;1.75;;;;;31.31;100.00;101435.19;5011458;28;51572;-44
2022/09/29 12:56:19;;;;;;;;;3.75;1.75;;;;;31.36;100.00;101421.94;5017806;28;52041;-43
2022/09/29 12:59:12;;;;;;;;;1.75;1.25;;;;;31.41;100.00;101419.69;5019486;28;51193;-43
2022/09/29 13:01:57;;;;;;;;;1.50;1.50;;;;;31.37;100.00;101409.94;5006764;28;51457;-45